Time;durP1;ratioP1;P1;durP2;ratioP2;P2;SDS_P1;SDS_P2;PMS_P1;PMS_P2;Temp;Humidity;BMP_temperature;BMP_pressure;BME280_temperature;BME280_humidity;BME280_pressure;Samples;Min_cycle;Max_cycle;Signal;HPM_P1;HPM_P2
2023/07/10 00:01:56;;;;;;;3.70;2.63;;;17.70;99.90;;;;;;4177336;28;20060;-66
2023/07/10 00:03:58;;;;;;;3.78;2.75;;;17.70;99.90;;;;;;4177273;28;20091;-62
2023/07/10 00:06:00;;;;;;;4.20;3.17;;;17.70;99.90;;;;;;4177385;28;20465;-62
2023/07/10 00:08:01;;;;;;;4.03;2.83;;;17.70;99.90;;;;;;4178277;28;20024;-61
2023/07/10 00:10:02;;;;;;;4.07;2.80;;;17.70;99.90;;;;;;4177455;28;20377;-61
2023/07/10 00:12:04;;;;;;;4.57;3.08;;;17.70;99.90;;;;;;4177612;28;20404;-62
2023/07/10 00:14:14;;;;;;;2.75;2.50;;;17.80;99.90;;;;;;4177834;28;20044;-64
2023/07/10 00:16:21;;;;;;;4.65;2.80;;;17.80;99.90;;;;;;4177408;28;20057;-61
2023/07/10 00:18:23;;;;;;;3.78;2.88;;;17.80;99.90;;;;;;4177891;28;20052;-62
2023/07/10 00:20:27;;;;;;;5.38;3.05;;;17.70;99.90;;;;;;4177675;28;20063;-61
2023/07/10 00:22:28;;;;;;;4.05;3.20;;;17.70;99.90;;;;;;4178170;28;20381;-60
2023/07/10 00:24:29;;;;;;;5.95;2.65;;;17.70;99.90;;;;;;4177253;28;20074;-61
2023/07/10 00:26:30;;;;;;;3.70;2.83;;;17.70;99.90;;;;;;4177349;28;20025;-61
2023/07/10 00:28:31;;;;;;;4.15;2.67;;;17.60;99.90;;;;;;4176527;28;20041;-61
2023/07/10 00:30:32;;;;;;;4.40;2.90;;;17.60;99.90;;;;;;4160548;28;20037;-61
2023/07/10 00:32:33;;;;;;;4.90;2.80;;;17.60;99.90;;;;;;4176732;28;20029;-61
2023/07/10 00:34:35;;;;;;;6.47;2.80;;;17.60;99.90;;;;;;4177853;28;20563;-62
2023/07/10 00:36:38;;;;;;;4.47;2.92;;;17.60;99.90;;;;;;4176378;28;20114;-61
2023/07/10 00:38:39;;;;;;;3.00;2.35;;;17.50;99.90;;;;;;4178305;28;20132;-62
2023/07/10 00:40:40;;;;;;;3.20;2.70;;;17.50;99.90;;;;;;4177102;28;20033;-65
2023/07/10 00:42:42;;;;;;;4.80;2.63;;;17.40;99.90;;;;;;4178319;28;20033;-62
2023/07/10 00:44:48;;;;;;;4.28;2.65;;;17.40;99.90;;;;;;4176247;28;20079;-62
2023/07/10 00:46:59;;;;;;;2.85;2.65;;;17.30;99.90;;;;;;4177185;28;20033;-63
2023/07/10 00:49:10;;;;;;;5.10;2.63;;;17.30;99.90;;;;;;4176851;28;20021;-62
2023/07/10 00:51:22;;;;;;;4.10;2.30;;;17.20;99.90;;;;;;4177899;28;20029;-61
2023/07/10 00:53:37;;;;;;;2.90;2.67;;;17.20;99.90;;;;;;4176449;28;20095;-62
2023/07/10 00:55:40;;;;;;;4.90;2.50;;;17.20;99.90;;;;;;4176596;28;20563;-61
2023/07/10 00:57:43;;;;;;;4.40;3.17;;;17.20;99.90;;;;;;4176010;28;20052;-62
2023/07/10 00:59:44;;;;;;;3.28;2.90;;;17.10;99.90;;;;;;4177641;28;20095;-62
2023/07/10 01:02:07;;;;;;;2.70;2.47;;;17.10;99.90;;;;;;4177401;28;20033;-62
2023/07/10 01:04:09;;;;;;;3.85;2.72;;;17.10;99.90;;;;;;4177646;28;20412;-62
2023/07/10 01:06:18;;;;;;;4.47;2.97;;;17.10;99.90;;;;;;4176388;28;20043;-66
2023/07/10 01:08:19;;;;;;;3.08;2.78;;;17.00;99.90;;;;;;4177541;28;20021;-62
2023/07/10 01:10:21;;;;;;;4.13;2.50;;;17.00;99.90;;;;;;4176206;28;20047;-62
2023/07/10 01:12:23;;;;;;;5.07;3.03;;;17.00;99.90;;;;;;4176877;28;20532;-61
2023/07/10 01:14:24;;;;;;;4.03;2.65;;;17.10;99.90;;;;;;4177673;28;20570;-61
2023/07/10 01:16:27;;;;;;;3.90;2.90;;;17.10;99.90;;;;;;4176126;28;20029;-61
2023/07/10 01:18:28;;;;;;;4.00;2.50;;;17.20;99.90;;;;;;4177695;28;20033;-62
2023/07/10 01:20:39;;;;;;;3.25;2.70;;;17.20;99.90;;;;;;4176441;28;20033;-62
2023/07/10 01:22:40;;;;;;;3.15;2.28;;;17.20;99.90;;;;;;4176746;28;20397;-61
2023/07/10 01:24:42;;;;;;;2.42;2.20;;;17.30;99.90;;;;;;4175958;28;20083;-61
2023/07/10 01:26:43;;;;;;;2.72;2.50;;;17.30;99.90;;;;;;4177679;28;20044;-61
2023/07/10 01:28:45;;;;;;;6.32;2.35;;;17.30;99.90;;;;;;4176556;28;20028;-63
2023/07/10 01:30:49;;;;;;;4.53;2.38;;;17.30;99.90;;;;;;4175980;28;20049;-62
2023/07/10 01:32:54;;;;;;;4.07;2.65;;;17.30;99.90;;;;;;4156301;28;20034;-62
2023/07/10 01:34:59;;;;;;;2.88;2.40;;;17.40;99.90;;;;;;4160568;28;20041;-62
2023/07/10 01:37:03;;;;;;;5.32;1.98;;;17.40;99.90;;;;;;4158943;28;20040;-61
2023/07/10 01:39:35;;;;;;;3.95;2.63;;;17.40;99.90;;;;;;4159602;28;20034;-61
2023/07/10 01:41:41;;;;;;;5.97;2.67;;;17.40;99.90;;;;;;4143227;28;20494;-62
2023/07/10 01:43:42;;;;;;;2.97;2.72;;;17.30;99.90;;;;;;4160782;28;20118;-62
2023/07/10 01:45:46;;;;;;;6.63;2.58;;;17.40;99.90;;;;;;4158967;28;20087;-61
2023/07/10 01:47:48;;;;;;;2.75;2.47;;;17.40;99.90;;;;;;4159703;28;20099;-61
2023/07/10 01:49:54;;;;;;;2.72;2.38;;;17.40;99.90;;;;;;4159817;28;20563;-62
2023/07/10 01:51:57;;;;;;;2.92;2.58;;;17.50;99.90;;;;;;4160872;28;20029;-62
2023/07/10 01:54:05;;;;;;;2.85;2.13;;;17.50;99.90;;;;;;4159460;28;20388;-61
2023/07/10 01:56:06;;;;;;;3.58;2.35;;;17.60;99.90;;;;;;4160137;28;20050;-63
2023/07/10 01:58:07;;;;;;;5.15;2.10;;;17.60;99.90;;;;;;4143782;28;20887;-62
2023/07/10 02:00:09;;;;;;;6.65;2.33;;;17.70;99.90;;;;;;4143764;28;20127;-62
2023/07/10 02:02:10;;;;;;;2.50;2.30;;;17.70;99.90;;;;;;4143802;28;20038;-61
2023/07/10 02:04:11;;;;;;;4.53;2.60;;;17.70;99.90;;;;;;4155567;28;20102;-62
2023/07/10 02:06:13;;;;;;;4.63;2.38;;;17.70;99.90;;;;;;4160613;28;20092;-65
2023/07/10 02:08:14;;;;;;;3.88;2.70;;;17.70;99.90;;;;;;4159693;28;20025;-61
2023/07/10 02:10:15;;;;;;;4.47;2.60;;;17.70;99.90;;;;;;4160853;28;20038;-61
2023/07/10 02:12:16;;;;;;;2.40;2.05;;;17.70;99.90;;;;;;4159182;28;20045;-62
2023/07/10 02:14:18;;;;;;;3.38;2.10;;;17.70;99.90;;;;;;4161094;28;20172;-62
2023/07/10 02:16:19;;;;;;;3.95;2.10;;;17.70;99.90;;;;;;4159565;28;20029;-61
2023/07/10 02:18:20;;;;;;;4.47;2.38;;;17.80;99.90;;;;;;4159822;28;20045;-62
2023/07/10 02:20:21;;;;;;;4.57;2.25;;;17.80;99.90;;;;;;4158594;28;20033;-62
2023/07/10 02:22:23;;;;;;;3.92;2.42;;;17.80;99.90;;;;;;4160206;28;20026;-62
2023/07/10 02:24:24;;;;;;;3.20;2.17;;;17.80;99.90;;;;;;4159475;28;20379;-63
2023/07/10 02:26:27;;;;;;;4.38;2.50;;;17.80;99.90;;;;;;4160273;28;20034;-62
2023/07/10 02:28:28;;;;;;;4.45;2.05;;;17.80;99.90;;;;;;4161507;28;20079;-61
2023/07/10 02:30:29;;;;;;;3.67;2.75;;;17.80;99.90;;;;;;4163115;28;20099;-62
2023/07/10 02:32:30;;;;;;;3.60;2.95;;;17.70;99.90;;;;;;4164434;28;20053;-62
2023/07/10 02:34:31;;;;;;;3.13;2.33;;;17.70;99.90;;;;;;4161208;28;20462;-61
2023/07/10 02:36:33;;;;;;;3.75;2.53;;;17.70;99.90;;;;;;4161370;28;20100;-62
2023/07/10 02:38:34;;;;;;;2.97;2.15;;;17.70;99.90;;;;;;4179034;28;20350;-61
2023/07/10 02:40:35;;;;;;;3.75;2.55;;;17.70;99.90;;;;;;4179662;28;20033;-61
2023/07/10 02:42:37;;;;;;;3.30;2.50;;;17.70;99.90;;;;;;4178411;28;20029;-61
2023/07/10 02:44:38;;;;;;;6.13;2.65;;;17.70;99.90;;;;;;4180562;28;20554;-62
2023/07/10 02:46:39;;;;;;;4.88;2.25;;;17.60;99.90;;;;;;4160954;28;20132;-62
2023/07/10 02:48:40;;;;;;;4.97;2.80;;;17.60;99.90;;;;;;4179652;28;20556;-62
2023/07/10 02:50:43;;;;;;;2.75;2.25;;;17.60;99.90;;;;;;4178894;28;20477;-61
2023/07/10 02:52:44;;;;;;;4.65;2.75;;;17.60;99.90;;;;;;4179883;28;20029;-62
2023/07/10 02:54:45;;;;;;;5.88;2.40;;;17.60;99.90;;;;;;4178284;28;20055;-59
2023/07/10 02:56:46;;;;;;;5.45;2.60;;;17.60;99.90;;;;;;4179270;28;20098;-62
2023/07/10 02:58:51;;;;;;;4.05;2.55;;;17.60;99.90;;;;;;4178652;28;20043;-61
2023/07/10 03:00:58;;;;;;;3.28;1.98;;;17.60;99.90;;;;;;4178992;28;20428;-62
2023/07/10 03:02:59;;;;;;;3.90;2.10;;;17.70;99.90;;;;;;4179084;28;20369;-62
2023/07/10 03:05:00;;;;;;;3.85;2.03;;;17.80;99.90;;;;;;4179149;28;20142;-61
2023/07/10 03:07:01;;;;;;;3.38;2.10;;;17.80;99.90;;;;;;4178367;28;20017;-62
2023/07/10 03:09:04;;;;;;;6.13;2.75;;;17.90;99.90;;;;;;4178085;28;20033;-61
2023/07/10 03:11:09;;;;;;;2.50;2.30;;;18.00;99.90;;;;;;4178691;28;20029;-62
2023/07/10 03:13:10;;;;;;;2.97;1.90;;;18.10;99.90;;;;;;4177530;28;20127;-62
2023/07/10 03:15:12;;;;;;;2.35;2.15;;;18.20;99.90;;;;;;4161149;28;20041;-63
2023/07/10 03:17:13;;;;;;;3.30;2.28;;;18.40;99.90;;;;;;4177276;28;20520;-62
2023/07/10 03:19:14;;;;;;;4.53;2.10;;;18.50;99.90;;;;;;4178915;28;20132;-60
2023/07/10 03:21:15;;;;;;;2.97;2.13;;;18.60;99.90;;;;;;4176973;28;20110;-62
2023/07/10 03:23:17;;;;;;;5.78;2.28;;;18.80;99.90;;;;;;4178053;28;20075;-62
2023/07/10 03:25:18;;;;;;;3.55;2.28;;;18.80;99.90;;;;;;4177198;28;20045;-61
2023/07/10 03:27:19;;;;;;;3.22;2.30;;;18.90;99.90;;;;;;4178874;28;20094;-61
2023/07/10 03:29:21;;;;;;;2.83;2.47;;;19.00;99.90;;;;;;4176209;28;20040;-61
2023/07/10 03:31:23;;;;;;;3.28;2.47;;;19.20;99.90;;;;;;4178540;28;20436;-62
2023/07/10 03:33:24;;;;;;;3.72;2.60;;;19.30;99.90;;;;;;4177096;28;20041;-62
2023/07/10 03:35:25;;;;;;;4.53;2.65;;;19.30;99.90;;;;;;4178220;28;20098;-61
2023/07/10 03:37:26;;;;;;;4.75;2.25;;;19.30;99.90;;;;;;4177434;28;20087;-61
2023/07/10 03:39:27;;;;;;;3.47;2.20;;;19.40;99.90;;;;;;4177568;28;20033;-61
2023/07/10 03:41:28;;;;;;;5.32;2.40;;;19.60;99.90;;;;;;4178052;28;20118;-61
2023/07/10 03:43:30;;;;;;;4.00;2.22;;;19.70;99.90;;;;;;4178072;28;20025;-62
2023/07/10 03:45:31;;;;;;;4.05;2.20;;;19.90;99.90;;;;;;4161101;28;20041;-62
2023/07/10 03:47:32;;;;;;;4.70;2.20;;;20.00;99.90;;;;;;4177629;28;20025;-61
2023/07/10 03:49:33;;;;;;;3.40;2.60;;;20.10;99.90;;;;;;4178509;28;20239;-62
2023/07/10 03:51:34;;;;;;;2.25;2.05;;;20.30;99.90;;;;;;4159621;28;20037;-61
2023/07/10 03:53:36;;;;;;;7.75;2.47;;;20.40;99.90;;;;;;4178880;28;20041;-62
2023/07/10 03:55:50;;;;;;;2.50;2.30;;;20.60;99.90;;;;;;4177130;28;20090;-60
2023/07/10 03:57:51;;;;;;;3.55;2.55;;;20.80;99.90;;;;;;4160882;28;20042;-61
2023/07/10 03:59:52;;;;;;;3.95;2.25;;;21.10;99.90;;;;;;4166055;28;20079;-62
2023/07/10 04:01:54;;;;;;;4.85;2.30;;;21.20;99.90;;;;;;4170312;28;20086;-60
2023/07/10 04:03:55;;;;;;;3.88;2.33;;;21.40;99.90;;;;;;4177574;28;20481;-60
2023/07/10 04:05:58;;;;;;;4.25;2.05;;;21.50;99.90;;;;;;4170913;28;20037;-62
2023/07/10 04:07:59;;;;;;;3.67;2.40;;;21.60;99.90;;;;;;4166417;28;20095;-60
2023/07/10 04:10:00;;;;;;;2.35;2.13;;;21.70;99.90;;;;;;4174585;28;20048;-60
2023/07/10 04:12:02;;;;;;;2.55;2.35;;;21.80;99.90;;;;;;4176884;28;20025;-61
2023/07/10 04:14:03;;;;;;;4.07;2.08;;;21.90;99.90;;;;;;4156506;28;20080;-61
2023/07/10 04:16:11;;;;;;;2.10;1.90;;;22.00;99.90;;;;;;4175271;28;20110;-58
2023/07/10 04:18:12;;;;;;;3.58;2.42;;;22.20;99.90;;;;;;4176228;28;20087;-60
2023/07/10 04:20:13;;;;;;;4.00;2.10;;;22.70;99.90;;;;;;4176581;28;20052;-61
2023/07/10 04:22:14;;;;;;;4.63;2.10;;;23.30;99.90;;;;;;4176023;28;20037;-58
2023/07/10 04:24:17;;;;;;;2.42;2.22;;;23.60;99.50;;;;;;4177450;28;20098;-60
2023/07/10 04:26:31;;;;;;;5.00;2.13;;;23.90;99.00;;;;;;4177110;28;20033;-61
2023/07/10 04:28:32;;;;;;;4.18;2.20;;;24.10;98.00;;;;;;4177656;28;20099;-61
2023/07/10 04:30:33;;;;;;;2.25;2.05;;;24.30;98.10;;;;;;4176859;28;20036;-62
2023/07/10 04:32:35;;;;;;;3.72;2.20;;;24.40;97.70;;;;;;4177970;28;20025;-64
2023/07/10 04:34:36;;;;;;;5.90;2.63;;;24.50;97.40;;;;;;4176171;28;20025;-61
2023/07/10 04:36:37;;;;;;;3.38;2.20;;;24.90;96.90;;;;;;4178188;28;20056;-61
2023/07/10 04:38:38;;;;;;;3.80;2.75;;;25.10;96.40;;;;;;4176365;28;20044;-61
2023/07/10 04:40:57;;;;;;;5.55;2.42;;;25.30;96.10;;;;;;4177268;28;20059;-60
2023/07/10 04:42:59;;;;;;;2.65;1.90;;;25.40;94.90;;;;;;4175993;28;20130;-59
2023/07/10 04:45:00;;;;;;;3.05;1.90;;;25.50;95.40;;;;;;4177637;28;20044;-62
2023/07/10 04:47:01;;;;;;;4.70;2.03;;;26.00;95.00;;;;;;4176579;28;20037;-61
2023/07/10 04:49:02;;;;;;;3.33;2.45;;;26.00;94.30;;;;;;4177657;28;20458;-60
2023/07/10 04:51:05;;;;;;;3.17;2.30;;;26.10;94.10;;;;;;4158717;28;20029;-61
2023/07/10 04:53:06;;;;;;;2.63;2.40;;;26.20;93.80;;;;;;4176830;28;20048;-61
2023/07/10 04:55:08;;;;;;;2.17;2.03;;;25.90;93.60;;;;;;4177133;28;20554;-61
2023/07/10 04:57:09;;;;;;;4.50;2.05;;;25.90;93.40;;;;;;4176910;28;20025;-62
2023/07/10 04:59:10;;;;;;;3.45;2.20;;;25.90;93.20;;;;;;4177817;28;20135;-60
2023/07/10 05:01:11;;;;;;;4.90;2.47;;;25.90;93.10;;;;;;4175964;28;20040;-60
2023/07/10 05:03:12;;;;;;;6.55;2.72;;;26.10;93.00;;;;;;4159121;28;20037;-60
2023/07/10 05:05:13;;;;;;;3.28;1.90;;;26.50;92.70;;;;;;4176512;28;20037;-67
2023/07/10 05:07:14;;;;;;;4.60;1.90;;;26.90;92.20;;;;;;4177261;28;20036;-63
2023/07/10 05:09:16;;;;;;;3.97;1.90;;;27.30;91.70;;;;;;4176027;28;20037;-60
2023/07/10 05:11:17;;;;;;;4.10;2.35;;;27.50;91.40;;;;;;4177174;28;20044;-61
2023/07/10 05:13:19;;;;;;;3.78;2.10;;;27.30;91.20;;;;;;4176327;28;20090;-60
2023/07/10 05:15:20;;;;;;;3.85;2.38;;;27.60;91.10;;;;;;4177867;28;20102;-61
2023/07/10 05:17:21;;;;;;;4.00;2.17;;;28.00;90.60;;;;;;4175845;28;20041;-61
2023/07/10 05:19:23;;;;;;;3.88;2.25;;;28.40;90.30;;;;;;4176441;28;20087;-59
2023/07/10 05:21:24;;;;;;;2.53;1.73;;;28.80;89.70;;;;;;4176184;28;20106;-61
2023/07/10 05:23:26;;;;;;;2.35;2.08;;;29.00;88.60;;;;;;4176156;28;20114;-61
2023/07/10 05:25:27;;;;;;;6.25;2.55;;;28.60;88.20;;;;;;4177180;28;20442;-62
2023/07/10 05:27:29;;;;;;;4.13;2.03;;;28.70;88.30;;;;;;4176183;28;20490;-62
2023/07/10 05:29:30;;;;;;;4.97;1.92;;;29.00;87.70;;;;;;4176856;28;20107;-65
2023/07/10 05:31:31;;;;;;;5.05;2.60;;;29.40;86.70;;;;;;4176038;28;20033;-60
2023/07/10 05:33:33;;;;;;;2.25;2.00;;;29.90;85.80;;;;;;4176983;28;20067;-61
2023/07/10 05:35:34;;;;;;;7.05;2.10;;;30.50;84.80;;;;;;4175926;28;20190;-61
2023/07/10 05:37:35;;;;;;;3.40;2.03;;;30.90;83.80;;;;;;4177066;28;20557;-60
2023/07/10 05:39:36;;;;;;;4.15;1.90;;;30.80;82.80;;;;;;4175692;28;20125;-61
2023/07/10 05:41:37;;;;;;;3.20;1.92;;;30.50;82.50;;;;;;4176868;28;20067;-66
2023/07/10 05:43:39;;;;;;;5.47;2.45;;;30.00;82.60;;;;;;4175975;28;20025;-65
2023/07/10 05:45:40;;;;;;;6.88;2.90;;;30.00;82.80;;;;;;4177300;28;20120;-62
2023/07/10 05:47:41;;;;;;;2.53;1.85;;;30.20;82.50;;;;;;4175897;28;20029;-59
2023/07/10 05:49:42;;;;;;;4.38;1.80;;;30.60;82.00;;;;;;4176586;28;20736;-61
2023/07/10 05:51:44;;;;;;;3.45;2.00;;;31.10;81.20;;;;;;4175747;28;20036;-59
2023/07/10 05:53:45;;;;;;;2.58;1.80;;;31.20;80.60;;;;;;4176500;28;20017;-61
2023/07/10 05:55:49;;;;;;;4.75;2.22;;;31.50;80.00;;;;;;4176651;28;20051;-61
2023/07/10 05:57:50;;;;;;;5.57;2.22;;;31.90;78.70;;;;;;4176038;28;20017;-62
2023/07/10 05:59:52;;;;;;;4.32;1.85;;;32.10;78.20;;;;;;4177063;28;20465;-66
2023/07/10 06:01:53;;;;;;;2.78;1.70;;;31.60;78.00;;;;;;4175772;28;20489;-61
2023/07/10 06:03:54;;;;;;;2.97;1.73;;;31.40;78.10;;;;;;4180092;28;20091;-61
2023/07/10 06:05:58;;;;;;;3.60;2.03;;;31.10;77.90;;;;;;4179170;28;20049;-62
2023/07/10 06:07:59;;;;;;;1.95;1.73;;;31.10;78.10;;;;;;4180553;28;20554;-61
2023/07/10 06:10:01;;;;;;;2.25;1.88;;;31.30;77.80;;;;;;4178872;28;20520;-60
2023/07/10 06:12:02;;;;;;;6.70;1.88;;;31.40;77.50;;;;;;4180013;28;20174;-61
2023/07/10 06:14:03;;;;;;;3.20;2.03;;;31.10;77.40;;;;;;4179555;28;20102;-61
2023/07/10 06:16:08;;;;;;;4.07;2.55;;;31.10;77.70;;;;;;4180418;28;20033;-62
2023/07/10 06:18:09;;;;;;;6.93;2.20;;;31.30;77.10;;;;;;4178972;28;20037;-62
2023/07/10 06:20:11;;;;;;;4.35;2.13;;;31.60;76.60;;;;;;4179876;28;20040;-62
2023/07/10 06:22:12;;;;;;;4.85;1.70;;;31.70;76.50;;;;;;4179414;28;20416;-62
2023/07/10 06:24:14;;;;;;;3.55;1.88;;;32.00;76.20;;;;;;4179667;28;20075;-61
2023/07/10 06:26:15;;;;;;;7.60;1.80;;;32.10;76.10;;;;;;4179145;28;20095;-61
2023/07/10 06:28:17;;;;;;;2.72;1.75;;;32.50;75.90;;;;;;4178477;28;20032;-64
2023/07/10 06:30:18;;;;;;;5.63;1.90;;;32.40;75.00;;;;;;4179533;28;20135;-63
2023/07/10 06:32:19;;;;;;;4.25;2.15;;;32.00;75.80;;;;;;4178066;28;20037;-61
2023/07/10 06:34:21;;;;;;;2.75;1.55;;;32.60;75.60;;;;;;4179937;28;20359;-63
2023/07/10 06:36:22;;;;;;;10.43;2.38;;;33.10;74.70;;;;;;4178784;28;20463;-61
2023/07/10 06:38:24;;;;;;;13.07;4.22;;;33.30;73.80;;;;;;4179722;28;20490;-61
2023/07/10 06:40:26;;;;;;;29.45;5.03;;;33.10;73.50;;;;;;4178123;28;20033;-61
2023/07/10 06:42:28;;;;;;;21.63;4.75;;;32.80;73.60;;;;;;4179619;28;20458;-61
2023/07/10 06:44:29;;;;;;;20.02;4.03;;;32.70;73.60;;;;;;4178680;28;20044;-63
2023/07/10 06:46:30;;;;;;;12.30;4.25;;;32.70;73.50;;;;;;4179192;28;20033;-61
2023/07/10 06:48:32;;;;;;;11.15;3.15;;;32.80;73.10;;;;;;4178006;28;20033;-62
2023/07/10 06:50:33;;;;;;;13.65;5.32;;;31.80;73.70;;;;;;4179040;28;20045;-62
2023/07/10 06:52:39;;;;;;;20.40;4.60;;;31.70;74.50;;;;;;4178490;28;20017;-64
2023/07/10 06:54:40;;;;;;;19.73;3.92;;;31.00;74.70;;;;;;4179087;28;20037;-61
2023/07/10 06:56:41;;;;;;;29.48;4.95;;;30.80;75.60;;;;;;4178601;28;20071;-61
2023/07/10 06:58:42;;;;;;;31.38;4.85;;;31.30;75.30;;;;;;4178785;28;20029;-61
2023/07/10 07:00:43;;;;;;;22.95;3.78;;;31.50;75.10;;;;;;4179005;28;20122;-62
2023/07/10 07:02:44;;;;;;;17.17;3.78;;;31.80;74.60;;;;;;4177871;28;20041;-61
2023/07/10 07:04:46;;;;;;;13.45;3.17;;;31.90;74.70;;;;;;4179366;28;20098;-61
2023/07/10 07:06:49;;;;;;;16.58;3.72;;;32.50;73.90;;;;;;4178503;28;20504;-61
2023/07/10 07:08:52;;;;;;;11.65;3.28;;;32.40;74.00;;;;;;4179656;28;20110;-61
2023/07/10 07:10:54;;;;;;;15.50;2.97;;;32.20;73.70;;;;;;4177965;28;20099;-65
2023/07/10 07:12:55;;;;;;;7.20;2.70;;;31.10;74.50;;;;;;4179516;28;20079;-66
2023/07/10 07:14:56;;;;;;;13.48;3.10;;;30.20;75.80;;;;;;4178359;28;20037;-61
2023/07/10 07:16:57;;;;;;;19.90;3.10;;;29.90;76.60;;;;;;4179207;28;20095;-62
2023/07/10 07:18:59;;;;;;;17.80;3.13;;;30.00;76.80;;;;;;4177666;28;20143;-61
2023/07/10 07:21:00;;;;;;;9.07;2.53;;;30.20;76.60;;;;;;4179283;28;20078;-61
2023/07/10 07:23:01;;;;;;;11.82;2.30;;;30.20;76.80;;;;;;4178087;28;20032;-61
2023/07/10 07:25:03;;;;;;;5.85;2.40;;;30.00;76.90;;;;;;4178876;28;20481;-62
2023/07/10 07:27:05;;;;;;;4.50;2.33;;;29.70;77.30;;;;;;4178395;28;20033;-61
2023/07/10 07:29:06;;;;;;;10.75;2.83;;;29.60;77.50;;;;;;4178120;28;20064;-62
2023/07/10 07:31:07;;;;;;;7.90;2.20;;;29.40;77.80;;;;;;4178167;28;20041;-67
2023/07/10 07:33:09;;;;;;;7.53;2.45;;;29.20;78.00;;;;;;4177876;28;20045;-62
2023/07/10 07:35:10;;;;;;;7.78;2.90;;;29.00;78.50;;;;;;4178836;28;20024;-60
2023/07/10 07:37:12;;;;;;;8.70;3.25;;;28.70;79.20;;;;;;4176998;28;20102;-61
2023/07/10 07:39:15;;;;;;;15.05;4.03;;;28.40;79.70;;;;;;4177794;28;20105;-62
2023/07/10 07:41:16;;;;;;;15.52;3.67;;;28.60;79.20;;;;;;4177766;28;20033;-61
2023/07/10 07:43:17;;;;;;;8.68;3.03;;;28.50;78.60;;;;;;4178926;28;20037;-63
2023/07/10 07:45:18;;;;;;;5.30;2.20;;;28.70;78.60;;;;;;4178213;28;20165;-60
2023/07/10 07:47:20;;;;;;;4.55;2.08;;;28.80;79.10;;;;;;4178867;28;20059;-60
2023/07/10 07:49:23;;;;;;;4.13;2.03;;;28.80;79.40;;;;;;4177100;28;20044;-62
2023/07/10 07:51:25;;;;;;;4.78;2.25;;;28.50;79.50;;;;;;4178825;28;20098;-60
2023/07/10 07:53:27;;;;;;;4.43;1.95;;;28.50;80.00;;;;;;4177653;28;20095;-61
2023/07/10 07:55:29;;;;;;;4.03;2.28;;;28.40;80.50;;;;;;4178691;28;20037;-61
2023/07/10 07:57:31;;;;;;;2.38;2.13;;;28.40;80.90;;;;;;4177039;28;20115;-61
2023/07/10 07:59:32;;;;;;;2.97;2.03;;;28.30;81.20;;;;;;4177953;28;20978;-61
2023/07/10 08:01:34;;;;;;;1.92;1.50;;;28.30;81.60;;;;;;4177244;28;20402;-60
2023/07/10 08:03:35;;;;;;;2.20;2.00;;;28.40;81.60;;;;;;4177873;28;20033;-61
2023/07/10 08:05:37;;;;;;;5.53;2.42;;;28.40;81.80;;;;;;4177951;28;20052;-61
2023/07/10 08:07:38;;;;;;;5.07;2.20;;;28.40;81.80;;;;;;4177409;28;20029;-62
2023/07/10 08:09:39;;;;;;;4.55;2.33;;;28.60;81.90;;;;;;4178013;28;20091;-60
2023/07/10 08:11:40;;;;;;;2.45;1.90;;;28.90;81.60;;;;;;4177419;28;20025;-62
2023/07/10 08:13:41;;;;;;;5.35;2.20;;;29.00;82.20;;;;;;4178573;28;20036;-61
2023/07/10 08:15:43;;;;;;;3.03;2.00;;;28.70;81.80;;;;;;4177118;28;20312;-60
2023/07/10 08:17:44;;;;;;;4.00;2.22;;;28.60;82.10;;;;;;4177737;28;20090;-60
2023/07/10 08:19:45;;;;;;;7.07;2.40;;;28.70;82.30;;;;;;4177260;28;20098;-61
2023/07/10 08:21:47;;;;;;;2.78;2.20;;;28.60;81.80;;;;;;4178164;28;20025;-61
2023/07/10 08:23:48;;;;;;;2.97;1.88;;;28.80;80.50;;;;;;4177024;28;20090;-60
2023/07/10 08:25:49;;;;;;;4.75;2.13;;;28.80;81.00;;;;;;4177213;28;20099;-59
2023/07/10 08:27:51;;;;;;;3.95;1.70;;;28.90;80.10;;;;;;4177010;28;20095;-62
2023/07/10 08:29:52;;;;;;;3.17;2.13;;;29.10;79.10;;;;;;4177757;28;20079;-63
2023/07/10 08:31:55;;;;;;;3.38;1.70;;;29.50;77.90;;;;;;4177026;28;20033;-60
2023/07/10 08:33:56;;;;;;;7.40;1.90;;;29.60;77.00;;;;;;4176684;28;20102;-60
2023/07/10 08:36:00;;;;;;;6.28;1.77;;;29.90;76.50;;;;;;4177397;28;20083;-61
2023/07/10 08:38:02;;;;;;;29.75;5.95;;;30.20;76.40;;;;;;4177213;28;20461;-61
2023/07/10 08:40:05;;;;;;;3.53;2.00;;;30.00;75.60;;;;;;4177711;28;20469;-62
2023/07/10 08:42:22;;;;;;;2.83;1.40;;;30.20;75.30;;;;;;4176847;28;20489;-61
2023/07/10 08:44:30;;;;;;;3.65;1.73;;;30.20;74.90;;;;;;4177927;28;20025;-62
2023/07/10 08:46:32;;;;;;;4.05;2.33;;;30.10;74.90;;;;;;4176965;28;20032;-61
2023/07/10 08:48:42;;;;;;;4.65;1.88;;;29.90;74.70;;;;;;4177187;28;20465;-60
2023/07/10 08:50:44;;;;;;;4.55;1.95;;;29.80;75.00;;;;;;4176390;28;20033;-61
2023/07/10 08:53:05;;;;;;;3.88;1.73;;;30.00;75.00;;;;;;4177929;28;20095;-62
2023/07/10 08:55:15;;;;;;;1.77;1.67;;;30.00;74.60;;;;;;4176716;28;20075;-61
2023/07/10 08:57:31;;;;;;;3.67;2.00;;;30.10;74.70;;;;;;4176848;28;20126;-60
2023/07/10 08:59:47;;;;;;;4.32;1.85;;;30.20;74.50;;;;;;4176661;28;20151;-61
2023/07/10 09:01:48;;;;;;;4.80;2.15;;;30.30;74.00;;;;;;4177415;28;20174;-61
2023/07/10 09:03:51;;;;;;;3.50;1.90;;;30.20;74.50;;;;;;4176068;28;20469;-61
2023/07/10 09:05:53;;;;;;;6.45;2.15;;;30.40;74.60;;;;;;4176964;28;20045;-62
2023/07/10 09:07:58;;;;;;;3.33;1.58;;;30.30;74.80;;;;;;4175826;28;20039;-61
2023/07/10 09:10:03;;;;;;;28.52;4.45;;;30.30;74.80;;;;;;4177207;28;20446;-68
2023/07/10 09:12:39;;;;;;;11.45;2.83;;;30.40;74.60;;;;;;4176364;28;20013;-60
2023/07/10 09:14:56;;;;;;;2.25;1.83;;;30.20;73.90;;;;;;4174112;28;20037;-62
2023/07/10 09:16:59;;;;;;;3.42;2.08;;;30.20;74.30;;;;;;4175879;28;20106;-61
2023/07/10 09:19:06;;;;;;;24.42;4.40;;;30.20;74.60;;;;;;4176968;28;20033;-60
2023/07/10 09:21:24;;;;;;;3.47;1.70;;;30.00;75.30;;;;;;4176349;28;20033;-62
2023/07/10 09:23:30;;;;;;;4.35;2.25;;;30.00;74.50;;;;;;4177132;28;20029;-61
2023/07/10 09:25:36;;;;;;;4.90;2.00;;;29.90;74.60;;;;;;4176380;28;20095;-62
2023/07/10 09:27:41;;;;;;;4.32;1.88;;;30.00;74.80;;;;;;4176726;28;20090;-62
2023/07/10 09:29:48;;;;;;;6.25;1.50;;;29.90;74.50;;;;;;4175727;28;20095;-62
2023/07/10 09:31:53;;;;;;;9.65;2.42;;;29.80;74.00;;;;;;4177368;28;20028;-61
2023/07/10 09:34:00;;;;;;;4.80;2.13;;;29.80;74.50;;;;;;4176024;28;20106;-61
2023/07/10 09:36:01;;;;;;;2.75;1.88;;;29.80;74.40;;;;;;4176576;28;20174;-61
2023/07/10 09:38:03;;;;;;;42.28;7.45;;;29.80;74.80;;;;;;4176158;28;20033;-61
2023/07/10 09:40:19;;;;;;;8.75;2.40;;;29.50;75.30;;;;;;4176957;28;20032;-61
2023/07/10 09:42:31;;;;;;;12.73;3.17;;;29.00;75.00;;;;;;4175591;28;20049;-61
2023/07/10 09:44:39;;;;;;;41.80;8.75;;;29.00;75.60;;;;;;4177530;28;20025;-61
2023/07/10 09:46:40;;;;;;;12.90;3.00;;;29.10;76.20;;;;;;4175992;28;20041;-61
2023/07/10 09:48:41;;;;;;;4.22;1.90;;;29.20;76.70;;;;;;4176881;28;20033;-62
2023/07/10 09:50:46;;;;;;;4.97;1.85;;;29.40;76.60;;;;;;4176122;28;20025;-61
2023/07/10 09:52:56;;;;;;;16.27;3.92;;;29.50;76.70;;;;;;4177216;28;20025;-62
2023/07/10 09:55:17;;;;;;;;;;;29.60;77.00;;;;;;4158367;28;20163;-60
2023/07/10 09:57:18;;;;;;;3.20;1.73;;;29.80;76.70;;;;;;4175859;28;19912;-62
2023/07/10 09:59:26;;;;;;;4.55;1.83;;;29.90;76.70;;;;;;4175372;28;20100;-61
2023/07/10 10:01:30;;;;;;;5.28;1.88;;;29.90;76.20;;;;;;4176802;28;20033;-61
2023/07/10 10:03:38;;;;;;;3.83;2.22;;;29.80;76.30;;;;;;4175318;28;20033;-61
2023/07/10 10:05:41;;;;;;;7.57;2.22;;;29.60;76.50;;;;;;4176941;28;20035;-61
2023/07/10 10:07:45;;;;;;;4.03;2.42;;;29.50;76.90;;;;;;4175922;28;20020;-60
2023/07/10 10:09:46;;;;;;;3.38;1.83;;;29.40;76.80;;;;;;4176515;28;20045;-61
2023/07/10 10:11:51;;;;;;;16.27;4.25;;;29.40;76.70;;;;;;4175279;28;20079;-61
2023/07/10 10:13:56;;;;;;;19.02;4.30;;;29.20;76.40;;;;;;4175796;28;20037;-60
2023/07/10 10:16:06;;;;;;;40.67;7.93;;;29.00;77.00;;;;;;4176162;28;20492;-60
2023/07/10 10:18:15;;;;;;;;;;;28.80;77.30;;;;;;4176873;28;20091;-61
2023/07/10 10:20:28;;;;;;;4.68;2.25;;;29.00;77.90;;;;;;4175796;28;19970;-60
2023/07/10 10:22:30;;;;;;;4.80;2.65;;;29.10;77.70;;;;;;4158592;28;20041;-60
2023/07/10 10:24:32;;;;;;;4.43;2.70;;;29.30;77.30;;;;;;4176021;28;20029;-61
2023/07/10 10:26:43;;;;;;;4.45;2.90;;;29.40;77.10;;;;;;4176418;28;20025;-61
2023/07/10 10:29:07;;;;;;;4.22;2.60;;;29.40;77.00;;;;;;4157738;28;20038;-61
2023/07/10 10:31:10;;;;;;;37.20;7.07;;;29.10;76.30;;;;;;4176766;28;20033;-62
2023/07/10 10:33:46;;;;;;;15.55;3.90;;;28.90;77.10;;;;;;4175442;28;20095;-60
2023/07/10 10:35:50;;;;;;;8.90;2.47;;;28.80;77.20;;;;;;4175580;28;20505;-60
2023/07/10 10:38:18;;;;;;;14.25;3.35;;;28.90;77.30;;;;;;4175355;28;20041;-60
2023/07/10 10:40:48;;;;;;;13.38;3.58;;;29.00;77.40;;;;;;4176182;28;20098;-60
2023/07/10 10:43:24;;;;;;;11.93;3.20;;;29.00;78.20;;;;;;4175272;28;20087;-60